createdAt,value
2022-10-13T00:00:07.964Z,40.70
2022-10-13T00:03:04.211Z,28.90
2022-10-13T00:05:36.883Z,31.60
2022-10-13T00:08:08.996Z,34.10
2022-10-13T00:10:48.685Z,32.60
2022-10-13T00:13:22.513Z,38.30
2022-10-13T00:15:54.598Z,35.50
2022-10-13T00:18:27.999Z,34.30
2022-10-13T00:21:00.468Z,30.10
2022-10-13T00:23:34.449Z,33.00
2022-10-13T00:26:09.020Z,29.90
2022-10-13T00:28:41.654Z,30.00
2022-10-13T00:31:21.893Z,31.20
2022-10-13T00:33:54.282Z,32.30
2022-10-13T00:36:27.345Z,36.40
2022-10-13T00:38:59.687Z,36.40
2022-10-13T00:41:31.959Z,38.70
2022-10-13T00:44:06.135Z,32.90
2022-10-13T00:46:39.042Z,37.70
2022-10-13T00:49:14.284Z,35.10
2022-10-13T00:51:52.117Z,41.00
2022-10-13T00:54:27.132Z,38.90
2022-10-13T00:56:59.675Z,35.50
2022-10-13T00:59:31.938Z,38.70
2022-10-13T01:04:38.492Z,42.10
2022-10-13T01:07:11.553Z,40.10
2022-10-13T01:09:43.498Z,45.50
2022-10-13T01:15:02.722Z,44.40
2022-10-13T01:17:44.528Z,46.50
2022-10-13T01:20:38.454Z,45.30
2022-10-13T01:23:31.655Z,45.10
2022-10-13T01:26:25.174Z,49.80
2022-10-13T01:29:23.958Z,44.50
2022-10-13T01:32:07.847Z,40.90
2022-10-13T01:34:51.517Z,43.10
2022-10-13T01:37:29.439Z,39.20
2022-10-13T01:40:11.362Z,40.80
2022-10-13T01:42:50.516Z,42.10
2022-10-13T01:45:26.771Z,49.50
2022-10-13T01:48:00.637Z,41.00
2022-10-13T01:50:33.763Z,44.10
2022-10-13T01:53:08.598Z,44.90
2022-10-13T01:55:52.013Z,43.90
2022-10-13T01:58:24.931Z,39.50
2022-10-13T02:01:13.409Z,45.70
2022-10-13T02:03:53.876Z,40.50
2022-10-13T02:06:31.889Z,42.90
2022-10-13T02:09:07.472Z,40.80
2022-10-13T02:11:46.408Z,46.70
2022-10-13T02:14:23.540Z,43.10
2022-10-13T02:16:57.262Z,41.60
2022-10-13T02:19:31.076Z,39.80
2022-10-13T02:22:04.311Z,46.20
2022-10-13T02:24:37.157Z,44.30
2022-10-13T02:27:09.509Z,48.00
2022-10-13T02:29:53.780Z,42.90
2022-10-13T02:32:26.433Z,40.50
2022-10-13T02:34:58.467Z,43.00
2022-10-13T02:40:01.781Z,38.40
2022-10-13T02:42:33.724Z,35.60
2022-10-13T02:45:07.629Z,34.50
2022-10-13T02:47:39.576Z,34.10
2022-10-13T02:50:12.433Z,34.90
2022-10-13T02:52:44.574Z,36.20
2022-10-13T02:57:48.693Z,36.00
2022-10-13T03:00:20.764Z,38.70
2022-10-13T03:02:52.784Z,32.60
2022-10-13T03:05:25.031Z,31.40
2022-10-13T03:10:28.159Z,35.70
2022-10-13T03:13:00.188Z,36.30
2022-10-13T03:15:31.972Z,34.20
2022-10-13T03:18:04.367Z,36.70
2022-10-13T03:20:36.497Z,33.90
2022-10-13T03:25:39.432Z,40.50
2022-10-13T03:28:11.410Z,39.20
2022-10-13T03:30:45.500Z,45.50
2022-10-13T03:33:17.786Z,39.30
2022-10-13T03:35:49.652Z,36.60
2022-10-13T03:38:21.527Z,38.20
2022-10-13T03:40:53.540Z,39.00
2022-10-13T03:43:25.922Z,41.80
2022-10-13T03:46:02.598Z,37.10
2022-10-13T03:48:36.066Z,42.40
2022-10-13T03:51:10.536Z,45.90
2022-10-13T03:53:44.661Z,39.70
2022-10-13T03:56:18.697Z,36.70
2022-10-13T03:58:59.248Z,38.60
2022-10-13T04:01:32.577Z,38.80
2022-10-13T04:04:04.795Z,38.60
2022-10-13T04:06:36.649Z,46.20
2022-10-13T04:09:09.674Z,37.20
2022-10-13T04:11:41.730Z,40.90
2022-10-13T04:14:13.685Z,39.90
2022-10-13T04:16:45.802Z,37.10
2022-10-13T04:19:18.147Z,41.20
2022-10-13T04:21:50.534Z,40.90
2022-10-13T04:24:22.505Z,39.20
2022-10-13T04:26:54.457Z,39.90
2022-10-13T04:29:26.612Z,37.60
2022-10-13T04:34:29.155Z,35.20
2022-10-13T04:37:01.347Z,38.00
2022-10-13T04:39:33.598Z,41.60
2022-10-13T04:44:36.151Z,40.30
2022-10-13T04:49:39.475Z,31.20
2022-10-13T04:52:11.569Z,35.30
2022-10-13T04:54:44.480Z,29.80
2022-10-13T04:57:16.496Z,33.80
2022-10-13T04:59:48.723Z,31.10
2022-10-13T05:04:51.605Z,30.40
2022-10-13T05:07:24.281Z,32.10
2022-10-13T05:09:56.893Z,36.30
2022-10-13T05:12:28.848Z,32.00
2022-10-13T05:15:01.268Z,33.80
2022-10-13T05:17:35.486Z,33.60
2022-10-13T05:20:13.188Z,37.00
2022-10-13T05:22:45.549Z,42.10
2022-10-13T05:27:48.192Z,45.90
2022-10-13T05:32:53.865Z,32.80
2022-10-13T05:35:27.825Z,39.80
2022-10-13T05:38:00.001Z,40.40
2022-10-13T05:40:33.646Z,35.70
2022-10-13T05:43:06.360Z,32.10
2022-10-13T05:48:09.404Z,35.60
2022-10-13T05:50:41.646Z,39.10
2022-10-13T05:53:14.326Z,34.10
2022-10-13T05:55:46.660Z,38.80
2022-10-13T05:58:20.302Z,51.00
2022-10-13T06:00:55.271Z,39.30
2022-10-13T06:03:28.879Z,39.40
2022-10-13T06:06:01.002Z,37.90
2022-10-13T06:08:33.111Z,42.40
2022-10-13T06:11:06.220Z,44.00
2022-10-13T06:13:38.348Z,43.00
2022-10-13T06:16:10.586Z,47.20
2022-10-13T06:21:13.562Z,60.40
2022-10-13T06:23:45.487Z,51.00
2022-10-13T06:26:17.750Z,58.60
2022-10-13T06:31:27.850Z,53.80
2022-10-13T06:34:00.504Z,48.50
2022-10-13T06:36:32.564Z,48.20
2022-10-13T06:39:04.852Z,53.30
2022-10-13T06:41:37.251Z,47.30
2022-10-13T06:44:09.416Z,48.30
2022-10-13T06:46:41.876Z,45.40
2022-10-13T06:49:13.860Z,46.70
2022-10-13T06:51:46.440Z,47.40
2022-10-13T06:54:19.196Z,57.50
2022-10-13T06:56:52.008Z,41.40
2022-10-13T06:59:23.929Z,48.60
2022-10-13T07:01:56.022Z,42.50
2022-10-13T07:04:28.721Z,50.80
2022-10-13T07:07:03.066Z,49.20
2022-10-13T07:09:35.338Z,53.70
2022-10-13T07:12:09.022Z,52.00
2022-10-13T07:14:43.719Z,51.50
2022-10-13T07:17:16.052Z,45.50
2022-10-13T07:22:20.766Z,48.80
2022-10-13T07:24:52.875Z,51.50
2022-10-13T07:27:27.184Z,53.20
2022-10-13T07:29:59.416Z,52.60
2022-10-13T07:32:32.104Z,48.60
2022-10-13T07:35:05.282Z,60.60
2022-10-13T07:37:37.778Z,54.20
2022-10-13T07:40:12.474Z,60.50
2022-10-13T07:42:44.984Z,52.30
2022-10-13T07:47:51.013Z,53.90
2022-10-13T07:50:23.363Z,54.40
2022-10-13T07:52:55.281Z,62.90
2022-10-13T07:55:27.800Z,60.10
2022-10-13T07:58:02.428Z,56.00
2022-10-13T08:00:36.154Z,62.40
2022-10-13T08:03:08.410Z,53.90
2022-10-13T08:05:40.624Z,52.10
2022-10-13T08:08:12.676Z,55.40
2022-10-13T08:13:15.989Z,51.70
2022-10-13T08:15:48.225Z,48.40
2022-10-13T08:18:20.191Z,62.20
2022-10-13T08:20:59.246Z,50.80
2022-10-13T08:23:36.943Z,48.10
2022-10-13T08:26:15.334Z,46.50
2022-10-13T08:29:02.822Z,54.00
2022-10-13T08:31:35.632Z,54.50
2022-10-13T08:34:08.074Z,49.60
2022-10-13T08:36:40.753Z,57.60
2022-10-13T08:39:14.081Z,49.80
2022-10-13T08:41:46.504Z,51.60
2022-10-13T08:45:05.932Z,50.70
2022-10-13T08:47:34.850Z,54.80
2022-10-13T08:50:15.052Z,49.50
2022-10-13T08:52:51.425Z,48.00
2022-10-13T08:55:36.107Z,42.20
2022-10-13T08:58:17.355Z,49.10
2022-10-13T09:00:49.465Z,42.80
2022-10-13T09:03:28.276Z,40.80
2022-10-13T09:06:12.561Z,44.10
2022-10-13T09:08:50.027Z,45.50
2022-10-13T09:11:22.305Z,38.00
2022-10-13T09:13:59.811Z,35.10
2022-10-13T09:16:37.579Z,42.60
2022-10-13T09:19:23.935Z,36.50
2022-10-13T09:21:58.390Z,36.50
2022-10-13T09:24:30.421Z,49.30
2022-10-13T09:27:16.322Z,34.90
2022-10-13T09:29:48.288Z,29.00
2022-10-13T09:32:23.923Z,30.00
2022-10-13T09:34:56.491Z,27.70
2022-10-13T09:37:28.892Z,29.30
2022-10-13T09:40:14.455Z,27.40
2022-10-13T09:42:54.384Z,27.50
2022-10-13T09:45:27.975Z,26.40
2022-10-13T09:48:03.929Z,23.70
2022-10-13T09:50:37.353Z,25.20
2022-10-13T09:53:23.905Z,27.40
2022-10-13T09:56:11.370Z,24.60
2022-10-13T09:58:49.929Z,24.60
2022-10-13T10:01:27.360Z,23.10
2022-10-13T10:04:00.928Z,27.30
2022-10-13T10:06:34.477Z,24.50
2022-10-13T10:09:22.065Z,19.40
2022-10-13T10:11:56.262Z,20.10
2022-10-13T10:14:30.255Z,19.90
2022-10-13T10:17:14.308Z,19.80
2022-10-13T10:20:02.231Z,18.70
2022-10-13T10:22:41.636Z,18.80
2022-10-13T10:25:28.088Z,20.50
2022-10-13T10:28:23.755Z,19.90
2022-10-13T10:31:02.967Z,25.30
2022-10-13T10:33:44.303Z,19.40
2022-10-13T10:36:21.176Z,21.70
2022-10-13T10:38:57.120Z,20.20
2022-10-13T10:41:46.062Z,20.00
2022-10-13T10:44:22.938Z,20.30
2022-10-13T10:47:02.277Z,25.00
2022-10-13T10:49:36.160Z,21.30
2022-10-13T10:52:12.792Z,21.40
2022-10-13T10:54:58.403Z,21.80
2022-10-13T10:57:42.105Z,15.60
2022-10-13T11:00:18.956Z,20.70
2022-10-13T11:03:01.130Z,21.80
2022-10-13T11:06:03.054Z,15.60
2022-10-13T11:08:44.048Z,15.90
2022-10-13T11:11:41.206Z,21.40
2022-10-13T11:14:29.763Z,12.30
2022-10-13T11:17:30.827Z,13.50
2022-10-13T11:20:25.129Z,14.40
2022-10-13T11:23:24.108Z,17.20
2022-10-13T11:26:31.262Z,16.70
2022-10-13T11:29:03.283Z,14.60
2022-10-13T11:31:51.238Z,12.00
2022-10-13T11:34:32.665Z,17.50
2022-10-13T11:37:17.359Z,13.10
2022-10-13T11:40:22.277Z,14.40
2022-10-13T11:43:08.563Z,17.50
2022-10-13T11:48:59.983Z,14.20
2022-10-13T11:51:41.456Z,20.70
2022-10-13T11:54:25.549Z,17.80
2022-10-13T11:56:58.750Z,17.60
2022-10-13T11:59:33.712Z,15.90
2022-10-13T12:02:18.914Z,18.10
2022-10-13T12:05:06.713Z,17.70
2022-10-13T12:07:44.185Z,12.70
2022-10-13T12:10:24.753Z,13.70
2022-10-13T12:12:57.565Z,16.10
2022-10-13T12:15:33.940Z,14.60
2022-10-13T12:18:23.817Z,10.70
2022-10-13T12:20:58.022Z,13.50
2022-10-13T12:23:30.845Z,16.10
2022-10-13T12:26:03.681Z,18.40
2022-10-13T12:28:50.090Z,13.60
2022-10-13T12:31:25.382Z,10.60
2022-10-13T12:33:59.204Z,11.00
2022-10-13T12:36:33.734Z,11.40
2022-10-13T12:39:11.711Z,12.20
2022-10-13T12:41:47.489Z,12.30
2022-10-13T12:44:23.717Z,11.70
2022-10-13T12:46:59.263Z,10.40
2022-10-13T12:49:33.215Z,13.90
2022-10-13T12:52:14.354Z,13.70
2022-10-13T12:54:52.132Z,15.50
2022-10-13T12:57:35.360Z,10.20
2022-10-13T13:00:22.144Z,12.50
2022-10-13T13:02:56.945Z,16.30
2022-10-13T13:05:37.694Z,14.50
2022-10-13T13:08:25.844Z,17.70
2022-10-13T13:10:59.440Z,20.30
2022-10-13T13:13:32.462Z,22.10
2022-10-13T13:16:18.668Z,16.90
2022-10-13T13:18:51.973Z,20.30
2022-10-13T13:21:24.567Z,16.80
2022-10-13T13:23:56.727Z,21.40
2022-10-13T13:26:28.663Z,19.20
2022-10-13T13:29:01.817Z,17.70
2022-10-13T13:31:34.066Z,19.80
2022-10-13T13:34:06.067Z,19.90
2022-10-13T13:36:38.089Z,18.20
2022-10-13T13:39:18.232Z,16.80
2022-10-13T13:41:50.209Z,21.20
2022-10-13T13:46:53.863Z,19.90
2022-10-13T13:49:25.911Z,21.00
2022-10-13T13:51:58.025Z,18.50
2022-10-13T13:54:32.551Z,20.40
2022-10-13T13:57:05.933Z,24.20
2022-10-13T13:59:38.509Z,19.80
2022-10-13T14:02:15.953Z,18.70
2022-10-13T14:07:34.695Z,25.60
2022-10-13T14:10:08.741Z,18.60
2022-10-13T14:12:40.929Z,22.30
2022-10-13T14:15:13.648Z,20.00
2022-10-13T14:17:45.535Z,25.30
2022-10-13T14:22:49.838Z,26.50
2022-10-13T14:25:22.949Z,19.20
2022-10-13T14:27:55.026Z,20.90
2022-10-13T14:30:27.056Z,25.00
2022-10-13T14:32:59.198Z,23.70
2022-10-13T14:35:31.666Z,23.20
2022-10-13T14:38:03.986Z,23.30
2022-10-13T14:40:36.959Z,23.90
2022-10-13T14:43:08.953Z,20.70
2022-10-13T14:48:16.451Z,20.70
2022-10-13T14:50:48.900Z,24.20
2022-10-13T14:53:20.831Z,30.00
2022-10-13T14:58:23.482Z,26.40
2022-10-13T15:00:55.827Z,21.20
2022-10-13T15:03:28.174Z,28.80
2022-10-13T15:06:01.360Z,28.30
2022-10-13T15:08:33.555Z,24.40
2022-10-13T15:11:06.409Z,25.00
2022-10-13T15:13:39.389Z,22.90
2022-10-13T15:16:18.361Z,23.80
2022-10-13T15:18:50.902Z,29.90
2022-10-13T15:21:23.923Z,28.20
2022-10-13T15:23:56.554Z,24.70
2022-10-13T15:26:28.487Z,29.40
2022-10-13T15:29:01.027Z,28.60
2022-10-13T15:31:33.101Z,25.80
2022-10-13T15:34:05.334Z,25.60
2022-10-13T15:36:38.063Z,23.70
2022-10-13T15:39:12.180Z,28.50
2022-10-13T15:41:44.380Z,28.90
2022-10-13T15:44:21.074Z,28.90
2022-10-13T15:47:07.596Z,28.20
2022-10-13T15:49:40.544Z,22.30
2022-10-13T15:52:12.995Z,23.40
2022-10-13T15:54:45.172Z,31.30
2022-10-13T15:59:47.568Z,24.20
2022-10-13T16:04:50.767Z,31.50
2022-10-13T16:09:53.472Z,28.10
2022-10-13T16:12:25.759Z,29.40
2022-10-13T16:14:58.096Z,31.40
2022-10-13T16:17:30.130Z,32.00
2022-10-13T16:22:33.150Z,33.00
2022-10-13T16:25:05.584Z,37.60
2022-10-13T16:27:41.782Z,40.60
2022-10-13T16:30:17.710Z,43.00
2022-10-13T16:32:50.430Z,41.00
2022-10-13T16:35:23.037Z,39.20
2022-10-13T16:37:55.654Z,45.00
2022-10-13T16:40:28.045Z,38.90
2022-10-13T16:43:00.660Z,38.70
2022-10-13T16:45:55.098Z,33.70
2022-10-13T16:50:56.602Z,49.60
2022-10-13T16:53:29.522Z,39.70
2022-10-13T16:56:01.859Z,38.80
2022-10-13T16:58:34.164Z,37.80
2022-10-13T17:01:11.076Z,38.60
2022-10-13T17:03:44.490Z,42.90
2022-10-13T17:06:19.780Z,41.10
2022-10-13T17:08:56.537Z,42.80
2022-10-13T17:11:31.317Z,51.20
2022-10-13T17:14:05.590Z,51.40
2022-10-13T17:16:37.710Z,68.60
2022-10-13T17:19:10.241Z,140.40
2022-10-13T17:21:44.193Z,61.80
2022-10-13T17:24:17.299Z,84.90
2022-10-13T17:26:52.029Z,74.00
2022-10-13T17:29:24.627Z,82.20
2022-10-13T17:32:02.634Z,129.10
2022-10-13T17:34:36.677Z,92.80
2022-10-13T17:37:11.888Z,94.10
2022-10-13T17:39:44.149Z,74.00
2022-10-13T17:42:17.874Z,72.40
2022-10-13T17:44:52.530Z,76.80
2022-10-13T17:47:24.702Z,82.20
2022-10-13T17:49:56.833Z,90.60
2022-10-13T17:52:30.117Z,73.40
2022-10-13T17:55:02.615Z,102.30
2022-10-13T17:57:36.513Z,74.90
2022-10-13T18:00:13.500Z,81.60
2022-10-13T18:02:46.709Z,76.40
2022-10-13T18:05:19.965Z,72.00
2022-10-13T18:07:58.244Z,76.20
2022-10-13T18:10:40.796Z,65.60
2022-10-13T18:13:23.593Z,57.80
2022-10-13T18:15:56.339Z,66.90
2022-10-13T18:18:29.586Z,56.60
2022-10-13T18:21:04.850Z,56.50
2022-10-13T18:23:38.595Z,59.30
2022-10-13T18:26:13.981Z,55.70
2022-10-13T18:28:51.506Z,49.80
2022-10-13T18:31:27.588Z,49.00
2022-10-13T18:34:04.853Z,46.10
2022-10-13T18:36:38.931Z,49.10
2022-10-13T18:39:16.940Z,48.70
2022-10-13T18:41:53.320Z,50.40
2022-10-13T18:44:29.237Z,47.70
2022-10-13T18:47:03.167Z,48.80
2022-10-13T18:49:35.755Z,40.60
2022-10-13T18:52:08.523Z,43.00
2022-10-13T18:54:45.553Z,44.70
2022-10-13T18:57:17.606Z,42.20
2022-10-13T18:59:51.472Z,45.00
2022-10-13T19:02:24.491Z,50.60
2022-10-13T19:04:56.698Z,50.00
2022-10-13T19:07:35.657Z,50.20
2022-10-13T19:10:15.552Z,54.20
2022-10-13T19:12:49.729Z,50.00
2022-10-13T19:15:24.834Z,54.80
2022-10-13T19:17:58.747Z,54.60
2022-10-13T19:20:36.162Z,54.30
2022-10-13T19:23:18.163Z,59.00
2022-10-13T19:25:51.558Z,56.30
2022-10-13T19:28:32.073Z,53.80
2022-10-13T19:31:13.630Z,42.10
2022-10-13T19:33:49.881Z,48.90
2022-10-13T19:36:30.444Z,48.40
2022-10-13T19:39:11.718Z,51.50
2022-10-13T19:41:45.574Z,46.00
2022-10-13T19:44:21.838Z,45.50
2022-10-13T19:46:55.328Z,52.90
2022-10-13T19:49:27.714Z,47.00
2022-10-13T19:52:00.218Z,48.90
2022-10-13T19:57:07.107Z,48.60
2022-10-13T19:59:41.968Z,51.30
2022-10-13T20:02:16.771Z,56.00
2022-10-13T20:04:49.297Z,54.30
2022-10-13T20:07:21.674Z,54.60
2022-10-13T20:09:53.892Z,52.20
2022-10-13T20:12:26.147Z,52.60
2022-10-13T20:17:28.476Z,52.60
2022-10-13T20:20:00.521Z,56.40
2022-10-13T20:22:32.499Z,55.40
2022-10-13T20:25:06.205Z,57.20
2022-10-13T20:27:38.275Z,52.70
2022-10-13T20:30:17.197Z,54.70
2022-10-13T20:32:49.197Z,56.90
2022-10-13T20:35:22.276Z,57.60
2022-10-13T20:37:54.576Z,65.60
2022-10-13T20:42:57.118Z,52.20
2022-10-13T20:45:29.076Z,57.20
2022-10-13T20:48:01.376Z,63.60
2022-10-13T20:50:33.903Z,63.60
2022-10-13T20:55:41.620Z,62.70
2022-10-13T20:58:13.922Z,69.10
2022-10-13T21:00:47.029Z,55.30
2022-10-13T21:03:19.512Z,60.70
2022-10-13T21:05:55.432Z,58.50
2022-10-13T21:08:27.690Z,61.50
2022-10-13T21:13:30.208Z,57.80
2022-10-13T21:16:08.622Z,55.80
2022-10-13T21:18:41.328Z,56.60
2022-10-13T21:21:17.463Z,56.60
2022-10-13T21:23:53.849Z,57.50
2022-10-13T21:26:28.007Z,53.60
2022-10-13T21:29:01.237Z,58.00
2022-10-13T21:31:34.294Z,59.30
2022-10-13T21:34:06.375Z,55.10
2022-10-13T21:36:42.505Z,61.50
2022-10-13T21:39:16.239Z,53.70
2022-10-13T21:41:48.511Z,53.10
2022-10-13T21:44:21.223Z,58.00
2022-10-13T21:49:24.029Z,55.60
2022-10-13T21:54:26.509Z,55.70
2022-10-13T21:56:58.817Z,55.30
2022-10-13T22:02:01.812Z,53.00
2022-10-13T22:04:33.874Z,53.60
2022-10-13T22:07:06.209Z,54.90
2022-10-13T22:09:38.483Z,62.10
2022-10-13T22:12:11.288Z,56.50
2022-10-13T22:14:43.299Z,58.40
2022-10-13T22:17:15.462Z,54.00
2022-10-13T22:19:47.617Z,49.50
2022-10-13T22:22:19.507Z,55.90
2022-10-13T22:27:22.191Z,57.30
2022-10-13T22:29:54.686Z,54.30
2022-10-13T22:32:26.639Z,53.20
2022-10-13T22:34:58.740Z,48.80
2022-10-13T22:37:30.886Z,51.80
2022-10-13T22:42:33.909Z,46.70
2022-10-13T22:45:07.181Z,37.10
2022-10-13T22:47:39.286Z,38.50
2022-10-13T22:52:42.979Z,54.20
2022-10-13T22:55:15.058Z,49.90
2022-10-13T22:57:47.024Z,52.40
2022-10-13T23:00:19.674Z,47.60
2022-10-13T23:02:54.038Z,45.60
2022-10-13T23:07:56.919Z,52.60
2022-10-13T23:10:29.682Z,49.30
2022-10-13T23:13:02.116Z,51.80
2022-10-13T23:15:34.868Z,51.70
2022-10-13T23:18:07.436Z,48.20
2022-10-13T23:20:43.345Z,50.30
2022-10-13T23:23:17.513Z,52.70
2022-10-13T23:25:49.552Z,50.50
2022-10-13T23:28:21.440Z,54.20
2022-10-13T23:30:53.396Z,57.70
2022-10-13T23:33:26.356Z,51.30
2022-10-13T23:35:59.852Z,60.90
2022-10-13T23:38:34.193Z,49.80
2022-10-13T23:41:08.944Z,52.40
2022-10-13T23:43:42.255Z,51.20
2022-10-13T23:46:14.596Z,55.30
2022-10-13T23:51:20.327Z,57.80
2022-10-13T23:53:52.799Z,58.30
2022-10-13T23:56:24.932Z,59.60
2022-10-13T23:58:57.157Z,55.30
